Time;durP1;ratioP1;P1;durP2;ratioP2;P2;SDS_P1;SDS_P2;PMS_P1;PMS_P2;Temp;Humidity;BMP_temperature;BMP_pressure;BME280_temperature;BME280_humidity;BME280_pressure;Samples;Min_cycle;Max_cycle;Signal;HPM_P1;HPM_P2
2022/06/24 00:02:01;;;;;;;5.65;4.10;;;17.70;86.30;;;;;;5076266;28;20203;-85
2022/06/24 00:04:29;;;;;;;5.55;3.75;;;17.70;86.20;;;;;;5076796;28;20679;-84
2022/06/24 00:06:58;;;;;;;8.23;3.60;;;17.70;86.10;;;;;;5076422;28;20172;-85
2022/06/24 00:09:28;;;;;;;6.00;3.90;;;17.70;86.00;;;;;;5076286;28;20249;-85
2022/06/24 00:12:06;;;;;;;7.57;4.10;;;17.70;85.80;;;;;;5076044;28;20236;-85
2022/06/24 00:14:33;;;;;;;5.55;3.90;;;17.70;85.80;;;;;;5076545;28;20155;-85
2022/06/24 00:17:01;;;;;;;5.90;4.10;;;17.60;85.80;;;;;;5076045;28;20558;-86
2022/06/24 00:19:29;;;;;;;5.32;4.13;;;17.70;85.70;;;;;;5076123;28;20163;-85
2022/06/24 00:22:03;;;;;;;4.57;4.00;;;17.60;85.80;;;;;;5075820;28;20202;-85
2022/06/24 00:24:30;;;;;;;6.35;3.80;;;17.60;85.70;;;;;;5075960;28;20160;-85
2022/06/24 00:26:56;;;;;;;6.03;3.97;;;17.60;85.70;;;;;;5075809;28;20201;-86
2022/06/24 00:29:25;;;;;;;4.50;3.85;;;17.50;85.70;;;;;;5075937;28;20164;-85
2022/06/24 00:32:08;;;;;;;6.68;3.70;;;17.50;85.70;;;;;;5075903;28;20168;-85
2022/06/24 00:34:37;;;;;;;4.40;3.97;;;17.50;85.60;;;;;;5075756;28;20250;-85
2022/06/24 00:37:26;;;;;;;5.45;4.40;;;17.50;85.60;;;;;;5075984;28;20178;-85
2022/06/24 00:40:19;;;;;;;4.28;3.70;;;17.40;85.60;;;;;;5075583;28;20179;-85
2022/06/24 00:42:46;;;;;;;10.90;3.97;;;17.30;85.60;;;;;;5075512;28;20203;-85
2022/06/24 00:45:24;;;;;;;5.03;3.75;;;17.30;85.60;;;;;;5075688;28;20225;-84
2022/06/24 00:47:51;;;;;;;4.50;3.88;;;17.30;85.40;;;;;;5075684;28;20243;-85
2022/06/24 00:50:28;;;;;;;5.07;3.42;;;17.30;85.30;;;;;;5075334;28;20241;-87
2022/06/24 00:52:56;;;;;;;4.68;4.25;;;17.30;85.20;;;;;;5075832;28;20593;-87
2022/06/24 00:55:30;;;;;;;4.05;3.63;;;17.30;85.20;;;;;;5075357;28;20251;-85
2022/06/24 00:57:57;;;;;;;5.18;3.42;;;17.20;85.20;;;;;;5075258;28;20297;-86
2022/06/24 01:00:28;;;;;;;4.05;3.63;;;17.20;85.20;;;;;;5075151;28;20197;-85
2022/06/24 01:03:02;;;;;;;5.97;3.80;;;17.20;85.20;;;;;;5074850;28;20176;-87
2022/06/24 01:05:29;;;;;;;5.53;3.40;;;17.10;85.20;;;;;;5075442;28;20160;-87
2022/06/24 01:07:55;;;;;;;5.50;3.67;;;17.10;85.10;;;;;;5073841;28;20545;-86
2022/06/24 01:10:20;;;;;;;7.60;3.60;;;17.00;85.20;;;;;;5074904;28;20514;-86
2022/06/24 01:12:46;;;;;;;3.75;3.45;;;17.00;85.20;;;;;;5075058;28;20171;-86
2022/06/24 01:15:12;;;;;;;4.35;3.65;;;17.00;85.10;;;;;;5075335;28;20643;-87
2022/06/24 01:17:38;;;;;;;5.43;3.50;;;17.00;85.10;;;;;;5074846;28;20537;-86
2022/06/24 01:20:07;;;;;;;7.40;3.95;;;16.90;85.10;;;;;;5074835;28;20187;-87
2022/06/24 01:22:32;;;;;;;4.95;3.83;;;16.90;85.10;;;;;;5074921;28;20199;-86
2022/06/24 01:24:58;;;;;;;5.63;3.97;;;16.90;85.10;;;;;;5073700;28;20574;-86
2022/06/24 01:27:24;;;;;;;6.13;3.50;;;16.90;85.10;;;;;;5074708;28;20217;-86
2022/06/24 01:29:49;;;;;;;6.70;3.58;;;16.90;85.00;;;;;;5074835;28;20191;-87
2022/06/24 01:32:15;;;;;;;4.88;3.78;;;16.80;85.00;;;;;;5074759;28;20178;-86
2022/06/24 01:34:40;;;;;;;3.55;3.25;;;16.80;85.00;;;;;;5073296;28;20210;-86
2022/06/24 01:37:06;;;;;;;4.00;3.63;;;16.70;84.90;;;;;;5074344;28;20182;-86
2022/06/24 01:39:32;;;;;;;5.93;3.85;;;16.70;84.80;;;;;;5074532;28;20183;-86
2022/06/24 01:41:57;;;;;;;4.32;3.53;;;16.70;84.90;;;;;;5074550;28;20668;-86
2022/06/24 01:44:24;;;;;;;5.82;3.85;;;16.70;84.80;;;;;;5073087;28;20217;-86
2022/06/24 01:46:51;;;;;;;6.57;4.00;;;16.70;84.70;;;;;;5073099;28;20171;-86
2022/06/24 01:49:17;;;;;;;3.70;3.40;;;16.70;84.70;;;;;;5073009;28;20312;-86
2022/06/24 01:51:46;;;;;;;5.82;3.55;;;16.60;84.80;;;;;;5074190;28;20278;-86
2022/06/24 01:54:12;;;;;;;4.88;3.70;;;16.50;84.80;;;;;;5074302;28;20266;-86
2022/06/24 01:56:37;;;;;;;7.22;3.85;;;16.50;85.00;;;;;;5074011;28;20557;-87
2022/06/24 01:59:03;;;;;;;4.10;3.50;;;16.40;85.00;;;;;;5073108;28;20182;-87
2022/06/24 02:01:28;;;;;;;6.82;4.18;;;16.30;85.20;;;;;;5074011;28;20198;-86
2022/06/24 02:03:54;;;;;;;7.25;3.63;;;16.30;85.30;;;;;;5072973;28;20619;-86
2022/06/24 02:06:20;;;;;;;6.03;4.22;;;16.20;85.50;;;;;;5072675;28;20218;-86
2022/06/24 02:08:46;;;;;;;8.85;4.00;;;16.10;85.60;;;;;;5072972;28;20175;-86
2022/06/24 02:14:03;;;;;;;5.13;3.88;;;16.00;85.90;;;;;;5073724;28;20251;-86
2022/06/24 02:16:29;;;;;;;6.10;4.25;;;16.10;85.90;;;;;;5073568;28;20172;-86
2022/06/24 02:18:55;;;;;;;6.40;3.67;;;16.00;85.90;;;;;;5073695;28;20179;-86
2022/06/24 02:21:22;;;;;;;6.28;4.25;;;16.10;85.80;;;;;;5073615;28;20219;-86
2022/06/24 02:23:48;;;;;;;8.20;4.55;;;16.00;85.80;;;;;;5072733;28;20719;-86
2022/06/24 02:26:13;;;;;;;8.70;4.43;;;16.10;85.80;;;;;;5073548;28;20199;-86
2022/06/24 02:28:39;;;;;;;6.38;3.60;;;16.00;85.70;;;;;;5073599;28;20197;-86
2022/06/24 02:31:06;;;;;;;7.38;4.63;;;16.00;85.60;;;;;;5073487;28;20541;-87
2022/06/24 02:33:32;;;;;;;8.30;4.50;;;16.10;85.50;;;;;;5073531;28;20171;-87
2022/06/24 02:35:58;;;;;;;8.98;4.68;;;16.00;85.50;;;;;;5073685;28;20202;-86
2022/06/24 02:38:24;;;;;;;4.80;4.30;;;16.00;85.60;;;;;;5073463;28;20207;-87
2022/06/24 02:40:53;;;;;;;5.00;4.20;;;16.00;85.70;;;;;;5073377;28;20202;-86
2022/06/24 02:43:24;;;;;;;7.03;4.47;;;16.00;85.60;;;;;;5073322;28;20196;-86
2022/06/24 02:45:52;;;;;;;7.38;4.00;;;16.00;85.60;;;;;;5073716;28;20648;-86
2022/06/24 02:48:20;;;;;;;5.32;4.00;;;16.00;85.60;;;;;;5073361;28;20160;-87
2022/06/24 02:50:47;;;;;;;7.70;4.15;;;16.00;85.60;;;;;;5073439;28;20188;-87
2022/06/24 02:53:14;;;;;;;5.57;4.40;;;16.00;85.50;;;;;;5073512;28;20514;-86
2022/06/24 02:55:41;;;;;;;4.93;4.33;;;16.10;85.30;;;;;;5073262;28;20171;-86
2022/06/24 02:58:07;;;;;;;7.05;4.35;;;16.10;85.30;;;;;;5073092;28;20180;-87
2022/06/24 03:00:34;;;;;;;5.43;3.95;;;16.10;85.20;;;;;;5073698;28;20276;-87
2022/06/24 03:03:00;;;;;;;4.85;3.88;;;16.10;85.30;;;;;;5073120;28;20198;-86
2022/06/24 03:05:26;;;;;;;5.75;4.15;;;16.10;85.20;;;;;;5071973;28;20266;-86
2022/06/24 03:07:52;;;;;;;4.47;4.07;;;16.10;85.20;;;;;;5071936;28;20619;-86
2022/06/24 03:10:18;;;;;;;7.43;3.80;;;16.10;85.30;;;;;;5073049;28;20677;-87
2022/06/24 03:12:44;;;;;;;4.40;3.92;;;16.20;85.10;;;;;;5073129;28;20262;-87
2022/06/24 03:15:10;;;;;;;4.78;4.00;;;16.30;84.90;;;;;;5074062;28;20259;-87
2022/06/24 03:17:37;;;;;;;7.65;4.55;;;16.50;84.40;;;;;;5071817;28;20545;-87
2022/06/24 03:20:06;;;;;;;6.95;4.57;;;16.50;84.20;;;;;;5073039;28;20617;-87
2022/06/24 03:22:32;;;;;;;5.18;4.55;;;16.50;83.80;;;;;;5073044;28;20195;-87
2022/06/24 03:24:57;;;;;;;4.53;3.83;;;16.50;83.70;;;;;;5073392;28;20171;-87
2022/06/24 03:27:23;;;;;;;5.22;4.50;;;16.60;83.60;;;;;;5075796;28;20175;-88
2022/06/24 03:29:48;;;;;;;10.40;4.10;;;16.60;83.50;;;;;;5076905;28;20191;-87
2022/06/24 03:32:14;;;;;;;5.47;3.88;;;16.70;83.30;;;;;;5077146;28;20183;-87
2022/06/24 03:34:40;;;;;;;4.20;3.90;;;16.70;83.40;;;;;;5075648;28;20179;-88
2022/06/24 03:37:06;;;;;;;4.20;3.80;;;16.70;83.30;;;;;;5076869;28;20174;-87
2022/06/24 03:39:31;;;;;;;6.32;4.00;;;16.70;83.30;;;;;;5076784;28;20183;-87
2022/06/24 03:41:57;;;;;;;5.53;3.88;;;16.70;83.10;;;;;;5076639;28;20186;-86
2022/06/24 03:44:22;;;;;;;11.00;7.53;;;16.80;83.00;;;;;;5075425;28;20175;-87
2022/06/24 03:46:48;;;;;;;9.05;4.15;;;16.90;82.60;;;;;;5076675;28;20171;-87
2022/06/24 03:49:15;;;;;;;7.97;3.90;;;17.10;82.30;;;;;;5076560;28;20203;-87
2022/06/24 03:51:41;;;;;;;8.38;3.65;;;17.10;82.10;;;;;;5076491;28;20219;-87
2022/06/24 03:54:07;;;;;;;6.60;3.97;;;17.20;81.80;;;;;;5075225;28;20175;-87
2022/06/24 03:56:32;;;;;;;8.85;3.65;;;17.20;81.60;;;;;;5076333;28;20195;-87
2022/06/24 03:58:58;;;;;;;8.18;3.78;;;17.30;81.40;;;;;;5077006;28;20168;-87
2022/06/24 04:01:23;;;;;;;4.63;3.20;;;17.30;81.20;;;;;;5076364;28;20198;-88
2022/06/24 04:03:49;;;;;;;6.70;3.65;;;17.40;81.00;;;;;;5076465;28;20765;-87
2022/06/24 04:06:15;;;;;;;4.03;3.63;;;17.50;80.70;;;;;;5076284;28;20164;-88
2022/06/24 04:08:40;;;;;;;5.53;3.70;;;17.50;80.50;;;;;;5076155;28;20246;-87
2022/06/24 04:11:13;;;;;;;7.25;3.50;;;17.70;80.30;;;;;;5076074;28;20673;-87
2022/06/24 04:13:39;;;;;;;4.57;3.35;;;17.80;79.90;;;;;;5076123;28;20680;-87
2022/06/24 04:16:05;;;;;;;6.07;3.42;;;17.80;79.60;;;;;;5076067;28;20180;-88
2022/06/24 04:18:31;;;;;;;6.82;3.28;;;17.90;79.30;;;;;;5076280;28;20183;-87
2022/06/24 04:20:57;;;;;;;4.10;3.00;;;18.00;79.10;;;;;;5075884;28;20690;-87
2022/06/24 04:23:22;;;;;;;7.10;3.20;;;18.10;78.70;;;;;;5075884;28;20305;-87
2022/06/24 04:25:49;;;;;;;6.40;3.13;;;18.10;78.60;;;;;;5075907;28;20174;-87
2022/06/24 04:28:14;;;;;;;3.03;2.72;;;18.20;77.50;;;;;;5075933;28;20201;-87
2022/06/24 04:30:40;;;;;;;5.38;2.80;;;18.30;77.60;;;;;;5075731;28;20195;-87
2022/06/24 04:33:05;;;;;;;4.15;3.08;;;18.40;77.60;;;;;;5075726;28;20175;-87
2022/06/24 04:35:31;;;;;;;3.72;2.50;;;18.40;77.40;;;;;;5075738;28;20179;-87
2022/06/24 04:37:57;;;;;;;4.25;3.10;;;18.40;77.30;;;;;;5073730;28;20710;-87
2022/06/24 04:40:23;;;;;;;3.25;2.83;;;18.50;77.30;;;;;;5075590;28;20270;-88
2022/06/24 04:42:48;;;;;;;5.57;2.80;;;18.60;77.10;;;;;;5075619;28;20218;-87
2022/06/24 04:45:14;;;;;;;3.33;2.75;;;18.70;76.90;;;;;;5075975;28;20180;-87
2022/06/24 04:47:40;;;;;;;3.40;2.70;;;18.70;76.80;;;;;;5075562;28;20175;-87
2022/06/24 04:50:07;;;;;;;3.88;2.78;;;18.80;75.30;;;;;;5075398;28;20187;-87
2022/06/24 04:52:33;;;;;;;4.03;2.53;;;18.90;75.50;;;;;;5075435;28;20224;-87
2022/06/24 04:54:59;;;;;;;4.75;2.97;;;18.90;75.80;;;;;;5075683;28;20179;-87
2022/06/24 04:57:25;;;;;;;5.25;2.75;;;19.00;75.50;;;;;;5073914;28;20194;-87
2022/06/24 04:59:51;;;;;;;2.75;2.55;;;19.10;75.30;;;;;;5075322;28;20195;-87
2022/06/24 05:02:16;;;;;;;6.55;2.50;;;19.10;74.30;;;;;;5075227;28;20210;-87
2022/06/24 05:04:42;;;;;;;4.97;2.95;;;19.20;74.30;;;;;;5075185;28;20225;-87
2022/06/24 05:07:08;;;;;;;5.90;2.65;;;19.20;73.70;;;;;;5075417;28;20652;-87
2022/06/24 05:09:33;;;;;;;13.50;2.90;;;19.30;73.80;;;;;;5075077;28;20164;-88
2022/06/24 05:11:59;;;;;;;5.68;2.88;;;19.40;73.60;;;;;;5075390;28;20546;-87
2022/06/24 05:14:25;;;;;;;9.35;3.28;;;19.50;73.10;;;;;;5074405;28;20168;-88
2022/06/24 05:16:51;;;;;;;4.88;2.60;;;19.60;73.60;;;;;;5074880;28;20207;-88
2022/06/24 05:19:16;;;;;;;10.45;2.40;;;19.60;73.50;;;;;;5075224;28;20176;-87
2022/06/24 05:21:42;;;;;;;4.78;2.67;;;19.70;73.00;;;;;;5074774;28;20317;-87
2022/06/24 05:24:08;;;;;;;5.70;2.85;;;19.70;72.20;;;;;;5075257;28;20191;-87
2022/06/24 05:26:34;;;;;;;8.55;3.00;;;19.90;71.80;;;;;;5075099;28;20186;-87
2022/06/24 05:28:59;;;;;;;6.55;3.00;;;20.00;71.70;;;;;;5074719;28;20168;-87
2022/06/24 05:31:25;;;;;;;6.13;3.08;;;20.10;71.70;;;;;;5073353;28;20199;-87
2022/06/24 05:33:50;;;;;;;3.85;2.80;;;20.20;70.60;;;;;;5074587;28;20178;-87
2022/06/24 05:36:16;;;;;;;3.55;2.60;;;20.20;70.90;;;;;;5074508;28;20261;-87
2022/06/24 05:38:42;;;;;;;12.40;2.65;;;20.40;71.40;;;;;;5074452;28;20199;-87
2022/06/24 05:41:08;;;;;;;4.43;2.90;;;20.50;70.30;;;;;;5074348;28;20219;-87
2022/06/24 05:43:34;;;;;;;8.85;3.25;;;20.60;70.70;;;;;;5074276;28;20199;-87
2022/06/24 05:46:00;;;;;;;9.07;2.75;;;20.70;71.10;;;;;;5074613;28;20178;-87
2022/06/24 05:48:25;;;;;;;5.15;2.83;;;20.70;69.70;;;;;;5073693;28;20171;-87
2022/06/24 05:50:51;;;;;;;6.07;3.00;;;20.80;69.60;;;;;;5073915;28;20668;-87
2022/06/24 05:56:01;;;;;;;4.63;3.00;;;20.90;68.90;;;;;;5074586;28;20167;-87
2022/06/24 05:58:28;;;;;;;7.57;3.00;;;21.10;69.50;;;;;;5074472;28;20250;-87
2022/06/24 06:00:55;;;;;;;4.82;2.97;;;21.10;68.60;;;;;;5073969;28;20191;-87
2022/06/24 06:03:26;;;;;;;3.42;3.10;;;21.20;68.20;;;;;;5073933;28;20661;-87
2022/06/24 06:05:52;;;;;;;3.47;2.65;;;21.30;68.60;;;;;;5073984;28;20190;-87
2022/06/24 06:08:18;;;;;;;5.85;2.95;;;21.50;68.20;;;;;;5073930;28;20160;-87
2022/06/24 06:10:44;;;;;;;7.30;2.53;;;21.70;67.70;;;;;;5073753;28;20184;-87
2022/06/24 06:13:12;;;;;;;5.50;2.90;;;21.70;67.90;;;;;;5073900;28;20200;-87
2022/06/24 06:15:38;;;;;;;9.07;3.15;;;21.80;67.00;;;;;;5074004;28;20171;-87
2022/06/24 06:18:03;;;;;;;6.40;3.10;;;22.00;67.90;;;;;;5073695;28;20269;-87
2022/06/24 06:20:29;;;;;;;6.65;2.90;;;22.20;66.00;;;;;;5072315;28;20345;-87
2022/06/24 06:22:54;;;;;;;4.88;2.88;;;22.30;65.10;;;;;;5072629;28;20202;-87
2022/06/24 06:25:22;;;;;;;7.10;3.20;;;22.40;64.80;;;;;;5073833;28;20178;-87
2022/06/24 06:27:48;;;;;;;5.45;3.20;;;22.50;65.80;;;;;;5073554;28;20224;-87
2022/06/24 06:30:14;;;;;;;13.07;3.00;;;22.60;63.80;;;;;;5073483;28;20603;-87
2022/06/24 06:32:39;;;;;;;7.28;3.05;;;22.70;63.40;;;;;;5072291;28;20176;-87
2022/06/24 06:35:05;;;;;;;7.15;2.97;;;22.80;63.30;;;;;;5073471;28;20672;-87
2022/06/24 06:37:31;;;;;;;4.53;2.90;;;22.90;62.60;;;;;;5073357;28;20528;-87
2022/06/24 06:39:57;;;;;;;5.10;2.70;;;22.90;61.70;;;;;;5073730;28;20202;-86
2022/06/24 06:42:22;;;;;;;7.82;2.72;;;23.10;62.40;;;;;;5073435;28;20218;-86
2022/06/24 06:44:48;;;;;;;7.38;2.85;;;23.00;62.70;;;;;;5072072;28;20617;-87
2022/06/24 06:47:14;;;;;;;10.88;3.35;;;23.20;63.40;;;;;;5073321;28;20649;-87
2022/06/24 06:49:39;;;;;;;8.35;3.00;;;23.30;61.30;;;;;;5073290;28;20645;-86
2022/06/24 06:52:05;;;;;;;6.43;3.15;;;23.40;61.20;;;;;;5073292;28;20549;-86
2022/06/24 06:54:31;;;;;;;4.82;2.83;;;23.50;60.00;;;;;;5072276;28;20673;-87
2022/06/24 06:56:57;;;;;;;10.63;3.20;;;23.50;60.50;;;;;;5073425;28;20183;-87
2022/06/24 06:59:23;;;;;;;5.78;2.90;;;23.60;60.50;;;;;;5073197;28;20175;-87
2022/06/24 07:01:48;;;;;;;5.68;3.00;;;23.60;60.70;;;;;;5072825;28;20539;-86
2022/06/24 07:04:14;;;;;;;9.60;3.03;;;23.70;59.70;;;;;;5072984;28;20199;-86
2022/06/24 07:06:40;;;;;;;5.00;2.70;;;23.80;59.80;;;;;;5073180;28;20159;-87
2022/06/24 07:09:05;;;;;;;9.90;2.92;;;23.70;59.80;;;;;;5073066;28;20547;-86
2022/06/24 07:11:31;;;;;;;3.97;2.78;;;23.90;60.10;;;;;;5073037;28;20187;-87
2022/06/24 07:13:56;;;;;;;8.30;3.10;;;24.10;58.60;;;;;;5073015;28;20555;-87
2022/06/24 07:16:22;;;;;;;4.68;2.72;;;24.10;59.70;;;;;;5073023;28;20183;-87
2022/06/24 07:18:48;;;;;;;5.68;3.38;;;24.00;59.70;;;;;;5073212;28;20211;-87
2022/06/24 07:21:13;;;;;;;10.85;3.17;;;24.20;58.60;;;;;;5072920;28;20199;-87
2022/06/24 07:23:40;;;;;;;7.15;3.35;;;24.30;58.50;;;;;;5072907;28;20237;-86
2022/06/24 07:26:06;;;;;;;11.45;2.97;;;24.30;58.20;;;;;;5072984;28;20198;-86
2022/06/24 07:28:34;;;;;;;6.47;3.20;;;24.30;56.90;;;;;;5072916;28;20172;-86
2022/06/24 07:31:00;;;;;;;6.72;3.03;;;24.30;58.80;;;;;;5072802;28;20198;-86
2022/06/24 07:33:25;;;;;;;4.45;2.95;;;24.40;58.90;;;;;;5071561;28;20657;-86
2022/06/24 07:35:51;;;;;;;8.38;3.47;;;24.40;57.00;;;;;;5072777;28;20214;-87
2022/06/24 07:38:17;;;;;;;4.60;3.50;;;24.30;56.90;;;;;;5073037;28;20259;-86
2022/06/24 07:40:42;;;;;;;8.07;3.78;;;24.50;58.30;;;;;;5072709;28;20624;-87
2022/06/24 07:43:08;;;;;;;4.57;2.80;;;24.60;56.40;;;;;;5072996;28;20627;-86
2022/06/24 07:45:34;;;;;;;3.53;2.60;;;24.60;57.60;;;;;;5072742;28;20175;-87
2022/06/24 07:48:00;;;;;;;8.52;2.85;;;24.70;57.00;;;;;;5072675;28;20172;-86
2022/06/24 07:50:25;;;;;;;8.50;3.10;;;24.80;56.40;;;;;;5071431;28;20285;-87
2022/06/24 07:52:51;;;;;;;6.55;3.05;;;24.90;55.60;;;;;;5072808;28;20290;-87
2022/06/24 07:58:01;;;;;;;3.75;2.95;;;25.30;54.90;;;;;;5072485;28;20597;-86
2022/06/24 08:00:27;;;;;;;3.78;3.25;;;25.20;54.80;;;;;;5072739;28;20199;-86
2022/06/24 08:02:52;;;;;;;6.55;2.90;;;25.20;54.60;;;;;;5072515;28;20196;-87
2022/06/24 08:05:18;;;;;;;8.48;3.10;;;25.50;54.80;;;;;;5072695;28;20194;-86
2022/06/24 08:07:44;;;;;;;4.72;3.10;;;25.60;54.30;;;;;;5072960;28;20170;-87
2022/06/24 08:10:10;;;;;;;7.75;3.13;;;25.70;52.90;;;;;;5072795;28;20188;-87
2022/06/24 08:12:35;;;;;;;6.40;3.15;;;25.70;54.10;;;;;;5073834;28;20168;-88
2022/06/24 08:15:01;;;;;;;7.43;3.00;;;25.80;53.80;;;;;;5074985;28;20668;-89
2022/06/24 08:17:27;;;;;;;3.92;2.92;;;25.80;52.20;;;;;;5076325;28;20175;-88
2022/06/24 08:19:53;;;;;;;4.90;3.00;;;25.80;54.50;;;;;;5075973;28;20187;-87
2022/06/24 08:22:20;;;;;;;7.05;3.20;;;26.20;52.10;;;;;;5076221;28;20171;-86
2022/06/24 08:24:46;;;;;;;5.78;2.80;;;26.20;51.30;;;;;;5076140;28;20167;-87
2022/06/24 08:27:12;;;;;;;7.82;3.22;;;26.40;52.90;;;;;;5075842;28;20167;-86
2022/06/24 08:29:38;;;;;;;5.00;2.92;;;26.50;52.50;;;;;;5076133;28;20195;-86
2022/06/24 08:32:04;;;;;;;5.68;3.17;;;26.40;51.40;;;;;;5075836;28;20174;-86
2022/06/24 08:34:29;;;;;;;5.55;3.20;;;26.70;52.50;;;;;;5076014;28;20171;-86
2022/06/24 08:36:55;;;;;;;14.55;3.30;;;26.80;52.10;;;;;;5076208;28;20171;-86
2022/06/24 08:39:20;;;;;;;5.75;3.15;;;27.00;49.80;;;;;;5075684;28;20684;-86
2022/06/24 08:41:48;;;;;;;7.07;3.00;;;27.10;51.30;;;;;;5074235;28;20187;-86
2022/06/24 08:44:13;;;;;;;6.05;2.97;;;27.10;50.00;;;;;;5075538;28;20191;-86
2022/06/24 08:46:40;;;;;;;7.00;3.00;;;26.70;50.10;;;;;;5075545;28;20164;-86
2022/06/24 08:49:06;;;;;;;10.48;3.08;;;26.90;50.60;;;;;;5074275;28;20740;-85
2022/06/24 08:51:34;;;;;;;5.32;2.95;;;27.20;49.90;;;;;;5075414;28;20227;-86
2022/06/24 08:54:01;;;;;;;6.88;2.80;;;27.40;50.00;;;;;;5076089;28;20160;-85
2022/06/24 08:56:28;;;;;;;7.78;2.80;;;27.30;50.50;;;;;;5075307;28;20653;-86
2022/06/24 08:58:54;;;;;;;6.85;3.40;;;27.40;51.10;;;;;;5075558;28;20665;-86
2022/06/24 09:01:20;;;;;;;5.53;3.20;;;27.10;51.20;;;;;;5074077;28;20192;-86
2022/06/24 09:03:48;;;;;;;13.77;3.22;;;27.00;51.20;;;;;;5075733;28;20190;-85
2022/06/24 09:06:15;;;;;;;5.78;3.03;;;27.40;49.90;;;;;;5075407;28;20567;-85
2022/06/24 09:08:54;;;;;;;6.88;3.38;;;27.60;48.50;;;;;;5075389;28;20569;-85
2022/06/24 09:11:20;;;;;;;10.40;2.95;;;27.70;50.10;;;;;;5075323;28;20187;-86
2022/06/24 09:13:55;;;;;;;6.68;2.83;;;27.60;50.10;;;;;;5075061;28;20191;-86
2022/06/24 09:16:24;;;;;;;8.65;3.50;;;27.70;49.30;;;;;;5075117;28;20162;-86
2022/06/24 09:18:57;;;;;;;6.72;3.50;;;27.70;49.00;;;;;;5074916;28;20525;-86
2022/06/24 09:21:28;;;;;;;8.77;3.20;;;27.60;49.60;;;;;;5074898;28;20255;-86
2022/06/24 09:24:00;;;;;;;5.32;3.03;;;27.70;50.50;;;;;;5074721;28;20190;-86
2022/06/24 09:26:34;;;;;;;6.30;3.20;;;27.90;48.90;;;;;;5074907;28;20250;-87
2022/06/24 09:29:00;;;;;;;8.55;3.20;;;28.10;48.80;;;;;;5075232;28;20202;-87
2022/06/24 09:31:27;;;;;;;5.82;3.20;;;28.30;48.10;;;;;;5074721;28;20187;-86
2022/06/24 09:33:53;;;;;;;8.80;3.25;;;28.30;47.70;;;;;;5074739;28;20274;-86
2022/06/24 09:36:26;;;;;;;6.78;3.45;;;28.50;47.30;;;;;;5075012;28;20178;-86
2022/06/24 09:39:03;;;;;;;9.77;3.08;;;28.70;46.90;;;;;;5074582;28;20167;-87
2022/06/24 09:41:30;;;;;;;8.18;2.90;;;28.60;47.80;;;;;;5074547;28;20279;-86
2022/06/24 09:43:59;;;;;;;5.28;3.40;;;28.70;46.80;;;;;;5074476;28;20695;-88
2022/06/24 09:46:26;;;;;;;10.80;3.20;;;28.90;47.70;;;;;;5074678;28;20183;-86
2022/06/24 09:49:00;;;;;;;9.05;3.40;;;28.90;46.80;;;;;;5075326;28;20576;-86
2022/06/24 09:51:28;;;;;;;9.55;3.42;;;29.10;45.60;;;;;;5075544;28;20191;-87
2022/06/24 09:53:55;;;;;;;5.93;2.85;;;29.20;48.30;;;;;;5074779;28;20618;-87
2022/06/24 09:56:21;;;;;;;8.20;3.13;;;29.40;46.90;;;;;;5074270;28;20187;-87
2022/06/24 10:01:36;;;;;;;9.93;3.00;;;29.30;46.20;;;;;;5074608;28;20274;-87
2022/06/24 10:04:09;;;;;;;12.15;3.60;;;29.40;47.20;;;;;;5074208;28;20191;-86
2022/06/24 10:06:36;;;;;;;9.25;3.30;;;29.70;46.40;;;;;;5074692;28;20170;-86
2022/06/24 10:09:06;;;;;;;10.02;3.70;;;29.70;47.40;;;;;;5075683;28;20159;-86
2022/06/24 10:11:34;;;;;;;7.40;3.25;;;29.70;45.70;;;;;;5074255;28;20219;-88
2022/06/24 10:14:01;;;;;;;6.72;3.47;;;29.50;46.00;;;;;;5074283;28;20567;-87
2022/06/24 10:16:26;;;;;;;6.72;3.20;;;29.70;45.40;;;;;;5074346;28;20164;-87
2022/06/24 10:18:54;;;;;;;3.85;3.17;;;29.80;44.20;;;;;;5074736;28;20172;-87
2022/06/24 10:21:20;;;;;;;11.40;3.30;;;30.00;44.70;;;;;;5074158;28;20685;-88
2022/06/24 10:23:51;;;;;;;10.18;3.65;;;30.00;45.30;;;;;;5074687;28;20191;-87
2022/06/24 10:26:38;;;;;;;7.07;3.55;;;29.90;44.70;;;;;;5074531;28;20168;-87
2022/06/24 10:29:04;;;;;;;12.15;3.35;;;30.00;45.90;;;;;;5073810;28;20171;-88
2022/06/24 10:31:42;;;;;;;8.77;3.00;;;29.90;44.80;;;;;;5073751;28;20190;-88
2022/06/24 10:34:08;;;;;;;6.78;2.97;;;30.10;44.80;;;;;;5073777;28;20178;-89
2022/06/24 10:36:33;;;;;;;6.55;3.50;;;30.20;44.90;;;;;;5073130;28;20167;-88
2022/06/24 10:39:11;;;;;;;4.20;3.00;;;30.30;44.30;;;;;;5073615;28;20715;-89
2022/06/24 10:41:37;;;;;;;8.45;3.42;;;30.40;44.20;;;;;;5073680;28;20230;-86
2022/06/24 10:44:24;;;;;;;6.68;3.28;;;30.40;44.30;;;;;;5072293;28;20688;-90
2022/06/24 10:47:05;;;;;;;7.47;3.25;;;30.50;45.30;;;;;;5074003;28;20179;-90
2022/06/24 10:49:52;;;;;;;4.68;3.13;;;30.40;45.60;;;;;;5073776;28;20246;-90
2022/06/24 10:52:51;;;;;;;6.13;3.40;;;30.40;43.40;;;;;;5074418;28;20167;-89
2022/06/24 10:55:31;;;;;;;10.27;3.22;;;30.60;44.00;;;;;;5074043;28;20147;-90
2022/06/24 10:58:00;;;;;;;5.75;3.60;;;30.30;45.30;;;;;;5073386;28;20580;-89
2022/06/24 11:00:39;;;;;;;5.05;3.10;;;29.60;44.60;;;;;;5073362;28;20570;-89
2022/06/24 11:03:04;;;;;;;10.52;3.33;;;29.80;46.20;;;;;;5073861;28;20545;-90
2022/06/24 11:05:41;;;;;;;3.63;3.25;;;29.70;46.30;;;;;;5073905;28;20163;-86
2022/06/24 11:08:22;;;;;;;4.93;3.05;;;29.30;47.90;;;;;;5073591;28;20162;-87
2022/06/24 11:10:49;;;;;;;4.07;2.90;;;29.40;47.60;;;;;;5073431;28;20199;-88
2022/06/24 11:13:16;;;;;;;7.20;3.92;;;29.40;47.50;;;;;;5073483;28;20179;-88
2022/06/24 11:15:47;;;;;;;10.88;3.30;;;29.60;46.90;;;;;;5073542;28;20172;-88
2022/06/24 11:18:17;;;;;;;5.05;2.90;;;29.70;47.40;;;;;;5073225;28;20190;-88
2022/06/24 11:20:54;;;;;;;6.03;3.05;;;30.00;46.00;;;;;;5073064;28;20195;-87
2022/06/24 11:23:21;;;;;;;6.20;3.30;;;30.00;46.30;;;;;;5073116;28;20183;-89
2022/06/24 11:25:58;;;;;;;6.32;3.40;;;30.10;46.00;;;;;;5073369;28;20206;-87
2022/06/24 11:28:33;;;;;;;8.05;3.45;;;29.70;44.50;;;;;;5073341;28;20156;-88
2022/06/24 11:31:18;;;;;;;5.45;3.55;;;29.90;47.60;;;;;;5073088;28;20271;-88
2022/06/24 11:33:45;;;;;;;7.85;3.00;;;29.60;45.80;;;;;;5073169;28;20228;-87
2022/06/24 11:36:12;;;;;;;7.45;3.88;;;29.70;46.10;;;;;;5073533;28;20171;-88
2022/06/24 11:38:52;;;;;;;11.10;3.20;;;30.10;46.70;;;;;;5073062;28;20667;-87
2022/06/24 11:41:24;;;;;;;8.45;3.30;;;30.20;46.80;;;;;;5073345;28;20198;-88
2022/06/24 11:43:51;;;;;;;9.05;3.47;;;30.50;46.80;;;;;;5073545;28;20194;-88
2022/06/24 11:46:17;;;;;;;7.32;3.10;;;30.50;47.30;;;;;;5071992;28;20180;-89
2022/06/24 11:48:43;;;;;;;11.60;4.55;;;30.30;44.40;;;;;;5076382;28;20201;-90
2022/06/24 11:51:19;;;;;;;9.23;3.80;;;30.00;45.90;;;;;;5076822;28;20184;-89
2022/06/24 11:53:59;;;;;;;7.82;3.20;;;30.40;45.90;;;;;;5076682;28;20550;-88
2022/06/24 11:56:30;;;;;;;4.20;3.00;;;30.60;46.40;;;;;;5075458;28;20194;-88
2022/06/24 11:59:06;;;;;;;8.25;3.47;;;30.50;44.60;;;;;;5076923;28;20574;-87
2022/06/24 12:01:32;;;;;;;5.13;3.20;;;30.60;47.80;;;;;;5077135;28;20199;-88
2022/06/24 12:04:00;;;;;;;5.07;3.20;;;30.50;45.50;;;;;;5076337;28;20198;-87
2022/06/24 12:06:27;;;;;;;7.32;3.20;;;30.20;46.40;;;;;;5076612;28;20168;-89
2022/06/24 12:08:55;;;;;;;7.85;3.60;;;30.10;47.60;;;;;;5076756;28;20171;-88
2022/06/24 12:11:22;;;;;;;3.88;3.08;;;30.00;46.10;;;;;;5076731;28;20669;-87
2022/06/24 12:14:02;;;;;;;6.10;3.40;;;29.90;44.70;;;;;;5076405;28;20208;-88
2022/06/24 12:16:48;;;;;;;9.95;4.25;;;29.80;46.70;;;;;;5076855;28;20653;-88
2022/06/24 12:19:14;;;;;;;7.68;3.38;;;29.40;48.60;;;;;;5076049;28;20193;-88
2022/06/24 12:21:40;;;;;;;11.45;3.38;;;28.70;49.70;;;;;;5076135;28;20669;-89
2022/06/24 12:24:22;;;;;;;22.95;4.55;;;28.70;52.30;;;;;;5077763;28;20194;-88
2022/06/24 12:26:51;;;;;;;15.88;5.25;;;26.60;59.80;;;;;;5077282;28;20175;-88
2022/06/24 12:29:30;;;;;;;12.00;5.22;;;25.60;66.10;;;;;;5075139;28;20199;-88
2022/06/24 12:31:56;;;;;;;8.48;4.60;;;24.90;69.90;;;;;;5076841;28;20155;-88
2022/06/24 12:34:35;;;;;;;12.05;4.38;;;24.50;70.80;;;;;;5076393;28;20175;-87
2022/06/24 12:37:02;;;;;;;9.55;4.95;;;24.30;70.40;;;;;;5076110;28;20680;-88
2022/06/24 12:39:50;;;;;;;10.70;4.85;;;24.10;74.00;;;;;;5075063;28;20194;-89
2022/06/24 12:42:22;;;;;;;8.38;4.75;;;23.80;76.00;;;;;;5075624;28;20329;-88
2022/06/24 12:44:54;;;;;;;9.10;4.80;;;23.40;76.80;;;;;;5076548;28;20166;-89
2022/06/24 12:53:05;;;;;;;10.10;4.40;;;23.20;76.80;;;;;;5077209;28;20249;-89
2022/06/24 12:55:32;;;;;;;10.85;5.38;;;23.30;76.30;;;;;;5076606;28;20148;-89
2022/06/24 12:57:58;;;;;;;11.27;5.35;;;23.30;75.90;;;;;;5074813;28;20203;-88
2022/06/24 13:00:24;;;;;;;7.72;5.28;;;23.20;77.20;;;;;;5076055;28;20199;-90
2022/06/24 13:02:52;;;;;;;12.80;6.88;;;23.20;76.60;;;;;;5076241;28;20653;-89
2022/06/24 13:05:19;;;;;;;7.45;5.38;;;23.10;77.40;;;;;;5076183;28;20171;-88
2022/06/24 13:07:45;;;;;;;11.02;6.50;;;23.10;78.30;;;;;;5075717;28;20174;-88